Terminal Aerodrome Forecast
Issued by NWS Cleveland, OH

Home | Current Version | Previous Version | Graphics & Text | Print | Product List | Glossary On
Versions: 1 2 3 4 5 6 7 8 9 10 11 12 13 14 15 16 17 18 19 20
000
FTUS41 KCLE 141127
TAFCAK
TAF
KCAK 141127Z 1412/1512 06006KT P6SM OVC070
     FM141900 33004KT P6SM VCSH OVC050
     FM150100 32004KT P6SM BKN050
     FM150600 32004KT P6SM BKN200=

USA.gov is the U.S. government's official web portal to all federal, state and local government web resources and services.